createdAt,value
2023-07-07T00:08:20.113Z,100737.42
2023-07-07T00:23:22.830Z,100744.77
2023-07-07T00:38:26.882Z,100750.75
2023-07-07T00:53:30.875Z,100755.23
2023-07-07T01:08:35.421Z,100750.38
2023-07-07T01:24:08.273Z,100754.08
2023-07-07T01:39:12.105Z,100762.38
2023-07-07T01:54:16.696Z,100775.45
2023-07-07T02:09:21.676Z,100784.23
2023-07-07T02:24:24.509Z,100785.84
2023-07-07T02:39:27.734Z,100790.27
2023-07-07T02:54:30.539Z,100778.33
2023-07-07T03:09:33.261Z,100783.03
2023-07-07T03:24:36.115Z,100790.64
2023-07-07T03:39:38.894Z,100804.23
2023-07-07T03:54:41.777Z,100821.48
2023-07-07T04:09:44.494Z,100838.05
2023-07-07T04:24:47.197Z,100844.58
2023-07-07T04:39:50.227Z,100852.64
2023-07-07T04:54:53.793Z,100865.41
2023-07-07T05:09:57.109Z,100880.42
2023-07-07T05:25:00.209Z,100882.96
2023-07-07T05:40:03.485Z,100897.98
2023-07-07T05:55:07.136Z,100904.30
2023-07-07T06:10:13.518Z,100911.27
2023-07-07T06:25:16.935Z,100921.45
2023-07-07T06:40:19.801Z,100936.45
2023-07-07T06:55:23.364Z,100943.09
2023-07-07T07:10:26.196Z,100946.04
2023-07-07T07:25:29.588Z,100959.45
2023-07-07T07:40:33.052Z,100964.61
2023-07-07T07:55:35.963Z,100969.16
2023-07-07T08:10:41.103Z,100971.71
2023-07-07T08:25:44.275Z,100977.97
2023-07-07T08:40:51.845Z,100981.05
2023-07-07T08:55:58.771Z,100977.27
2023-07-07T09:11:12.858Z,100972.94
2023-07-07T09:26:34.261Z,100980.00
2023-07-07T09:42:08.203Z,100970.05
2023-07-07T09:57:26.455Z,100970.05
2023-07-07T10:12:35.195Z,100965.65
2023-07-07T10:27:49.209Z,100965.41
2023-07-07T10:42:54.740Z,100963.59
2023-07-07T10:58:07.312Z,100967.83
2023-07-07T11:13:34.261Z,100958.85
2023-07-07T11:29:06.573Z,100946.04
2023-07-07T11:44:24.878Z,100948.12
2023-07-07T11:59:47.522Z,100944.93
2023-07-07T12:14:55.896Z,100936.61
2023-07-07T12:30:00.329Z,100935.48
2023-07-07T12:45:40.546Z,100925.84
2023-07-07T13:00:47.877Z,100910.35
2023-07-07T13:15:51.740Z,100894.40
2023-07-07T13:30:56.913Z,100900.44
2023-07-07T13:46:13.846Z,100890.17
2023-07-07T14:01:26.760Z,100883.19
2023-07-07T14:16:39.317Z,100879.48
2023-07-07T14:31:42.313Z,100865.55
2023-07-07T14:46:45.145Z,100858.00
2023-07-07T15:01:56.625Z,100847.95
2023-07-07T15:16:59.831Z,100838.44
2023-07-07T15:32:10.542Z,100839.84
2023-07-07T15:47:22.261Z,100832.38
2023-07-07T16:02:28.194Z,100830.79
2023-07-07T16:17:31.358Z,100834.04
2023-07-07T16:32:34.860Z,100832.39
2023-07-07T16:47:37.648Z,100835.23
2023-07-07T17:02:40.476Z,100833.73
2023-07-07T17:17:43.587Z,100837.14
2023-07-07T17:32:47.723Z,100838.48
2023-07-07T17:47:50.733Z,100835.27
2023-07-07T18:02:53.617Z,100842.99
2023-07-07T18:18:00.242Z,100845.30
2023-07-07T18:33:14.450Z,100842.88
2023-07-07T18:48:17.151Z,100846.14
2023-07-07T19:03:19.953Z,100849.63
2023-07-07T19:18:37.009Z,100845.17
2023-07-07T19:33:42.505Z,100861.36
2023-07-07T19:48:46.066Z,100865.98
2023-07-07T20:03:49.503Z,100868.00
2023-07-07T20:18:54.440Z,100862.10
2023-07-07T20:33:57.650Z,100868.59
2023-07-07T20:49:02.760Z,100873.17
2023-07-07T21:04:05.660Z,100881.70
2023-07-07T21:19:12.862Z,100899.13
2023-07-07T21:34:15.982Z,100896.02
2023-07-07T21:49:19.192Z,100894.02
2023-07-07T22:04:25.122Z,100904.17
2023-07-07T22:19:28.359Z,100923.45
2023-07-07T22:34:31.147Z,100919.00
2023-07-07T22:49:33.853Z,100917.27
2023-07-07T23:04:36.620Z,100913.98
2023-07-07T23:19:39.361Z,100912.77
2023-07-07T23:34:42.172Z,100916.02
2023-07-07T23:49:44.887Z,100902.66
